CLM4 weather

Lamont Health Care Centre Heliport
Lamont, Alberta, Canada

Public forecast

Using degrees Celsius for public forecast. Weather courtesy of forecast.io.

METAR (pilot weather report)

Closest report is Edmonton (CFB Namao) Heliport, 25.0 nm (46.3 km) WSW. Retrieved 2019/09/24 07:13 UTC (37 minutes ago):

CYED 240713Z AUTO 24005KT 9SM OVC046 07/05 A2968

TAF (pilot weather forecast)

Closest forecast is Edmonton (CFB Namao) Heliport, 25.0 nm (46.3 km) WSW. Retrieved 2019/09/24 06:33 UTC (1 hour ago):

TAF TAF CYED 240530Z 2406/2418 VRB03KT P6SM BKN080 BECMG 2408/2410 26008KT BECMG 2414/2416 28012G22KT RMK FCST BASED ON AUTO OBS. NXT FCST BY 241200Z